createdAt,value
2022-10-17T00:00:27.947Z,99.90
2022-10-17T00:02:56.176Z,99.90
2022-10-17T00:05:23.600Z,99.90
2022-10-17T00:07:51.044Z,99.90
2022-10-17T00:10:18.270Z,99.90
2022-10-17T00:12:45.300Z,99.90
2022-10-17T00:15:15.737Z,99.90
2022-10-17T00:17:42.753Z,99.90
2022-10-17T00:20:10.498Z,99.90
2022-10-17T00:22:37.571Z,99.90
2022-10-17T00:25:04.844Z,99.90
2022-10-17T00:27:35.013Z,99.90
2022-10-17T00:30:02.241Z,99.90
2022-10-17T00:32:29.925Z,99.90
2022-10-17T00:34:58.940Z,99.90
2022-10-17T00:37:26.161Z,99.90
2022-10-17T00:39:54.101Z,99.90
2022-10-17T00:42:21.211Z,99.90
2022-10-17T00:44:48.240Z,99.90
2022-10-17T00:47:17.385Z,99.90
2022-10-17T00:49:44.580Z,99.90
2022-10-17T00:52:20.291Z,99.90
2022-10-17T00:54:49.701Z,99.90
2022-10-17T00:57:17.058Z,99.90
2022-10-17T00:59:45.632Z,99.90
2022-10-17T01:02:14.823Z,99.90
2022-10-17T01:04:43.124Z,99.90
2022-10-17T01:07:10.289Z,99.90
2022-10-17T01:09:37.986Z,99.90
2022-10-17T01:12:11.445Z,99.90
2022-10-17T01:14:50.875Z,99.90
2022-10-17T01:17:36.712Z,99.90
2022-10-17T01:20:22.576Z,99.90
2022-10-17T01:22:52.636Z,99.90
2022-10-17T01:25:38.902Z,99.90
2022-10-17T01:28:24.546Z,99.90
2022-10-17T01:30:57.930Z,99.90
2022-10-17T01:33:25.448Z,99.90
2022-10-17T01:36:18.806Z,99.90
2022-10-17T01:38:50.685Z,99.90
2022-10-17T01:41:26.367Z,99.90
2022-10-17T01:43:59.591Z,99.90
2022-10-17T01:46:32.895Z,99.90
2022-10-17T01:49:01.871Z,99.90
2022-10-17T01:51:31.624Z,99.90
2022-10-17T01:54:03.249Z,99.90
2022-10-17T01:56:32.108Z,99.90
2022-10-17T01:59:11.709Z,99.90
2022-10-17T02:01:39.623Z,99.90
2022-10-17T02:04:08.364Z,99.90
2022-10-17T02:06:36.539Z,99.90
2022-10-17T02:09:17.187Z,99.90
2022-10-17T02:11:45.946Z,99.90
2022-10-17T02:14:15.778Z,99.90
2022-10-17T02:16:56.638Z,99.90
2022-10-17T02:19:41.448Z,99.90
2022-10-17T02:22:20.555Z,99.90
2022-10-17T02:24:50.348Z,99.90
2022-10-17T02:27:27.243Z,99.90
2022-10-17T02:29:57.428Z,99.90
2022-10-17T02:32:33.864Z,99.90
2022-10-17T02:35:02.605Z,99.90
2022-10-17T02:37:31.579Z,99.90
2022-10-17T02:40:00.954Z,99.90
2022-10-17T02:42:29.715Z,99.90
2022-10-17T02:44:59.870Z,99.90
2022-10-17T02:47:29.713Z,99.90
2022-10-17T02:49:57.756Z,99.90
2022-10-17T02:52:30.979Z,99.90
2022-10-17T02:55:00.653Z,99.90
2022-10-17T02:57:33.529Z,99.90
2022-10-17T03:00:02.084Z,99.90
2022-10-17T03:02:29.415Z,99.90
2022-10-17T03:04:57.044Z,99.90
2022-10-17T03:07:24.182Z,99.90
2022-10-17T03:09:51.324Z,99.90
2022-10-17T03:12:18.620Z,99.90
2022-10-17T03:14:45.770Z,99.90
2022-10-17T03:17:12.955Z,99.90
2022-10-17T03:19:40.076Z,99.90
2022-10-17T03:22:07.249Z,99.90
2022-10-17T03:24:34.435Z,99.90
2022-10-17T03:27:01.595Z,99.90
2022-10-17T03:29:28.808Z,99.90
2022-10-17T03:31:55.936Z,99.90
2022-10-17T03:34:23.279Z,99.90
2022-10-17T03:36:50.388Z,99.90
2022-10-17T03:39:17.464Z,99.90
2022-10-17T03:41:44.698Z,99.90
2022-10-17T03:44:11.793Z,99.90
2022-10-17T03:46:39.426Z,99.90
2022-10-17T03:49:06.696Z,99.90
2022-10-17T03:51:34.920Z,99.90
2022-10-17T03:54:02.008Z,99.90
2022-10-17T03:56:29.215Z,99.90
2022-10-17T03:58:56.476Z,99.90
2022-10-17T04:01:23.989Z,99.90
2022-10-17T04:03:53.408Z,99.90
2022-10-17T04:06:21.319Z,99.90
2022-10-17T04:08:48.940Z,99.90
2022-10-17T04:11:17.323Z,99.90
2022-10-17T04:13:44.670Z,99.90
2022-10-17T04:16:15.936Z,99.90
2022-10-17T04:18:43.425Z,99.90
2022-10-17T04:21:11.483Z,99.90
2022-10-17T04:23:39.063Z,99.90
2022-10-17T04:26:07.153Z,99.90
2022-10-17T04:28:36.139Z,99.90
2022-10-17T04:31:04.613Z,99.90
2022-10-17T04:33:32.281Z,99.90
2022-10-17T04:36:04.325Z,99.90
2022-10-17T04:38:31.701Z,99.90
2022-10-17T04:41:00.340Z,99.90
2022-10-17T04:43:27.454Z,99.90
2022-10-17T04:45:54.509Z,99.90
2022-10-17T04:48:21.611Z,99.90
2022-10-17T04:50:59.063Z,99.90
2022-10-17T04:53:27.200Z,99.90
2022-10-17T04:55:55.071Z,99.90
2022-10-17T04:58:22.274Z,99.90
2022-10-17T05:00:49.608Z,99.90
2022-10-17T05:03:17.320Z,99.90
2022-10-17T05:05:44.459Z,99.90
2022-10-17T05:08:11.891Z,99.90
2022-10-17T05:10:42.868Z,99.90
2022-10-17T05:13:10.392Z,99.90
2022-10-17T05:15:37.710Z,99.90
2022-10-17T05:18:05.497Z,99.90
2022-10-17T05:20:32.868Z,99.90
2022-10-17T05:23:00.256Z,99.90
2022-10-17T05:25:27.364Z,99.90
2022-10-17T05:27:54.721Z,99.90
2022-10-17T05:30:21.987Z,99.90
2022-10-17T05:32:51.938Z,99.90
2022-10-17T05:35:19.041Z,99.90
2022-10-17T05:37:46.577Z,99.90
2022-10-17T05:40:14.179Z,99.90
2022-10-17T05:42:46.002Z,99.90
2022-10-17T05:45:13.374Z,99.90
2022-10-17T05:47:40.526Z,99.90
2022-10-17T05:50:08.415Z,99.90
2022-10-17T05:52:35.745Z,99.90
2022-10-17T05:55:03.074Z,99.90
2022-10-17T05:57:30.069Z,99.90
2022-10-17T05:59:57.219Z,99.90
2022-10-17T06:02:24.513Z,99.90
2022-10-17T06:04:51.722Z,99.90
2022-10-17T06:07:19.007Z,99.90
2022-10-17T06:12:18.373Z,99.90
2022-10-17T06:14:45.526Z,99.90
2022-10-17T06:17:16.003Z,99.90
2022-10-17T06:19:45.283Z,99.90
2022-10-17T06:22:12.580Z,99.90
2022-10-17T06:24:39.589Z,99.90
2022-10-17T06:27:11.056Z,99.90
2022-10-17T06:29:39.425Z,99.90
2022-10-17T06:32:08.698Z,99.90
2022-10-17T06:34:38.426Z,99.90
2022-10-17T06:37:05.873Z,99.90
2022-10-17T06:39:34.708Z,99.90
2022-10-17T06:42:02.235Z,99.90
2022-10-17T06:44:31.826Z,99.90
2022-10-17T06:46:59.643Z,99.90
2022-10-17T06:49:27.272Z,99.90
2022-10-17T06:51:54.715Z,99.90
2022-10-17T06:54:22.116Z,99.90
2022-10-17T06:56:49.397Z,99.90
2022-10-17T06:59:16.476Z,99.90
2022-10-17T07:01:46.269Z,99.90
2022-10-17T07:04:14.624Z,99.90
2022-10-17T07:06:41.747Z,99.90
2022-10-17T07:09:09.806Z,99.90
2022-10-17T07:11:37.108Z,99.90
2022-10-17T07:14:04.225Z,99.90
2022-10-17T07:16:31.338Z,99.90
2022-10-17T07:18:58.573Z,99.90
2022-10-17T07:21:25.924Z,99.90
2022-10-17T07:23:53.512Z,99.90
2022-10-17T07:26:21.288Z,99.90
2022-10-17T07:28:52.094Z,99.90
2022-10-17T07:31:20.722Z,99.90
2022-10-17T07:33:48.027Z,99.90
2022-10-17T07:36:15.684Z,99.90
2022-10-17T07:38:43.183Z,99.90
2022-10-17T07:41:12.016Z,99.90
2022-10-17T07:43:39.359Z,99.90
2022-10-17T07:46:07.093Z,99.90
2022-10-17T07:48:34.747Z,99.90
2022-10-17T07:51:05.531Z,99.90
2022-10-17T07:53:33.034Z,99.90
2022-10-17T07:56:00.604Z,99.90
2022-10-17T07:58:29.465Z,99.90
2022-10-17T08:03:32.780Z,99.90
2022-10-17T08:06:03.594Z,99.90
2022-10-17T08:08:30.738Z,99.90
2022-10-17T08:11:01.983Z,99.90
2022-10-17T08:13:29.155Z,99.90
2022-10-17T08:15:59.382Z,99.90
2022-10-17T08:18:26.639Z,99.90
2022-10-17T08:20:56.772Z,99.90
2022-10-17T08:23:28.089Z,99.90
2022-10-17T08:25:55.726Z,99.90
2022-10-17T08:28:23.023Z,99.90
2022-10-17T08:30:50.362Z,99.90
2022-10-17T08:33:17.562Z,99.90
2022-10-17T08:35:44.701Z,99.90
2022-10-17T08:38:13.408Z,99.90
2022-10-17T08:40:43.050Z,99.90
2022-10-17T08:43:10.001Z,99.90
2022-10-17T08:45:41.037Z,99.90
2022-10-17T08:48:13.272Z,99.90
2022-10-17T08:50:46.024Z,99.90
2022-10-17T08:53:12.974Z,99.90
2022-10-17T08:55:44.459Z,99.90
2022-10-17T08:58:14.035Z,99.90
2022-10-17T09:00:46.373Z,99.90
2022-10-17T09:03:16.236Z,99.90
2022-10-17T09:05:49.845Z,99.90
2022-10-17T09:08:23.921Z,99.90
2022-10-17T09:10:59.288Z,99.90
2022-10-17T09:13:33.028Z,99.90
2022-10-17T09:16:03.246Z,99.90
2022-10-17T09:18:35.392Z,99.90
2022-10-17T09:21:10.128Z,99.90
2022-10-17T09:23:44.656Z,99.90
2022-10-17T09:26:12.679Z,99.90
2022-10-17T09:28:41.454Z,99.90
2022-10-17T09:31:23.064Z,99.90
2022-10-17T09:33:55.331Z,99.90
2022-10-17T09:36:25.482Z,99.90
2022-10-17T09:39:00.186Z,99.90
2022-10-17T09:44:17.564Z,99.30
2022-10-17T09:46:52.038Z,99.90
2022-10-17T09:49:21.547Z,99.90
2022-10-17T09:51:48.970Z,99.90
2022-10-17T09:54:25.597Z,99.90
2022-10-17T09:57:00.585Z,98.20
2022-10-17T09:59:41.865Z,98.40
2022-10-17T10:02:10.845Z,98.30
2022-10-17T10:05:03.612Z,98.30
2022-10-17T10:07:33.308Z,98.00
2022-10-17T10:10:03.259Z,98.90
2022-10-17T10:12:34.919Z,99.20
2022-10-17T10:15:02.246Z,99.90
2022-10-17T10:17:42.191Z,99.90
2022-10-17T10:20:26.489Z,99.90
2022-10-17T10:23:07.204Z,99.90
2022-10-17T10:25:35.692Z,99.90
2022-10-17T10:28:03.269Z,99.90
2022-10-17T10:30:34.882Z,99.90
2022-10-17T10:33:06.351Z,99.90
2022-10-17T10:35:37.397Z,99.90
2022-10-17T10:38:09.473Z,99.90
2022-10-17T10:40:39.052Z,99.90
2022-10-17T10:43:07.011Z,99.90
2022-10-17T10:45:52.588Z,99.90
2022-10-17T10:48:23.104Z,99.10
2022-10-17T10:50:53.389Z,94.50
2022-10-17T10:53:35.404Z,94.40
2022-10-17T10:56:22.915Z,91.50
2022-10-17T10:58:53.574Z,90.40
2022-10-17T11:01:20.778Z,88.20
2022-10-17T11:03:47.910Z,88.60
2022-10-17T11:06:19.416Z,87.50
2022-10-17T11:08:49.272Z,90.00
2022-10-17T11:11:30.047Z,89.10
2022-10-17T11:14:17.976Z,89.70
2022-10-17T11:16:56.554Z,86.00
2022-10-17T11:19:41.130Z,83.30
2022-10-17T11:22:14.021Z,84.80
2022-10-17T11:24:43.935Z,84.40
2022-10-17T11:27:11.094Z,83.60
2022-10-17T11:29:39.713Z,87.00
2022-10-17T11:32:31.922Z,84.90
2022-10-17T11:35:17.625Z,85.10
2022-10-17T11:37:52.577Z,84.60
2022-10-17T11:40:25.812Z,86.10
2022-10-17T11:43:00.368Z,84.50
2022-10-17T11:45:32.216Z,84.00
2022-10-17T11:48:02.264Z,84.00
2022-10-17T11:53:43.735Z,84.00
2022-10-17T11:56:12.428Z,86.90
2022-10-17T11:58:42.726Z,88.50
2022-10-17T12:01:09.801Z,88.70
2022-10-17T12:03:55.345Z,90.80
2022-10-17T12:06:39.641Z,91.50
2022-10-17T12:09:19.819Z,91.50
2022-10-17T12:11:56.720Z,92.80
2022-10-17T12:14:44.136Z,92.20
2022-10-17T12:17:30.842Z,92.60
2022-10-17T12:20:16.850Z,92.90
2022-10-17T12:22:47.937Z,92.50
2022-10-17T12:25:35.395Z,93.00
2022-10-17T12:28:27.024Z,92.90
2022-10-17T12:31:10.300Z,92.00
2022-10-17T12:33:47.058Z,92.80
2022-10-17T12:36:17.916Z,93.40
2022-10-17T12:38:49.216Z,93.20
2022-10-17T12:41:17.948Z,92.70
2022-10-17T12:46:40.065Z,93.40
2022-10-17T12:49:20.893Z,93.70
2022-10-17T12:52:06.024Z,93.50
2022-10-17T12:54:47.248Z,94.70
2022-10-17T12:57:27.462Z,93.80
2022-10-17T12:59:57.874Z,94.40
2022-10-17T13:02:27.403Z,95.10
2022-10-17T13:04:58.968Z,94.30
2022-10-17T13:07:26.514Z,93.30
2022-10-17T13:09:54.289Z,92.90
2022-10-17T13:12:27.439Z,91.30
2022-10-17T13:14:55.235Z,90.50
2022-10-17T13:17:24.306Z,86.40
2022-10-17T13:19:51.687Z,83.10
2022-10-17T13:22:21.499Z,81.80
2022-10-17T13:24:49.436Z,80.60
2022-10-17T13:27:25.448Z,81.90
2022-10-17T13:29:52.712Z,78.30
2022-10-17T13:32:19.777Z,77.70
2022-10-17T13:34:47.134Z,78.40
2022-10-17T13:37:15.942Z,79.20
2022-10-17T13:39:54.765Z,79.90
2022-10-17T13:42:38.390Z,80.90
2022-10-17T13:45:12.736Z,83.50
2022-10-17T13:47:40.312Z,84.50
2022-10-17T13:50:26.391Z,88.40
2022-10-17T13:53:08.548Z,90.00
2022-10-17T13:55:35.652Z,90.60
2022-10-17T13:58:18.205Z,91.60
2022-10-17T14:00:45.786Z,92.90
2022-10-17T14:03:13.490Z,93.90
2022-10-17T14:05:59.745Z,95.10
2022-10-17T14:08:26.982Z,95.90
2022-10-17T14:10:54.153Z,96.90
2022-10-17T14:13:25.766Z,97.70
2022-10-17T14:15:57.000Z,98.30
2022-10-17T14:18:34.842Z,98.90
2022-10-17T14:23:51.588Z,99.90
2022-10-17T14:26:21.605Z,99.90
2022-10-17T14:28:50.209Z,99.90
2022-10-17T14:33:50.524Z,99.90
2022-10-17T14:36:18.937Z,99.90
2022-10-17T14:38:48.009Z,99.90
2022-10-17T14:41:41.926Z,99.90
2022-10-17T14:44:28.096Z,99.90
2022-10-17T14:47:00.206Z,99.90
2022-10-17T14:49:31.698Z,99.90
2022-10-17T14:52:18.590Z,99.90
2022-10-17T14:54:58.443Z,99.90
2022-10-17T14:57:28.612Z,99.90
2022-10-17T14:59:56.501Z,99.90
2022-10-17T15:02:25.179Z,99.90
2022-10-17T15:04:52.435Z,99.90
2022-10-17T15:07:21.772Z,99.90
2022-10-17T15:09:50.011Z,99.90
2022-10-17T15:12:19.165Z,99.90
2022-10-17T15:14:48.751Z,99.90
2022-10-17T15:17:18.826Z,99.90
2022-10-17T15:19:45.888Z,99.90
2022-10-17T15:22:13.375Z,99.90
2022-10-17T15:24:40.397Z,99.90
2022-10-17T15:27:14.944Z,99.90
2022-10-17T15:29:42.068Z,99.90
2022-10-17T15:32:09.450Z,99.90
2022-10-17T15:34:36.619Z,99.90
2022-10-17T15:37:04.312Z,99.90
2022-10-17T15:39:31.457Z,99.90
2022-10-17T15:41:59.457Z,99.90
2022-10-17T15:44:26.609Z,99.90
2022-10-17T15:46:54.211Z,99.90
2022-10-17T15:49:21.282Z,99.90
2022-10-17T15:51:51.700Z,99.90
2022-10-17T15:54:22.405Z,99.90
2022-10-17T15:56:53.221Z,99.90
2022-10-17T15:59:22.141Z,99.90
2022-10-17T16:01:49.357Z,99.90
2022-10-17T16:04:16.428Z,99.90
2022-10-17T16:06:43.969Z,99.90
2022-10-17T16:09:10.995Z,99.90
2022-10-17T16:11:42.141Z,99.90
2022-10-17T16:14:13.194Z,99.90
2022-10-17T16:16:40.960Z,99.90
2022-10-17T16:19:08.985Z,99.90
2022-10-17T16:21:38.138Z,99.90
2022-10-17T16:24:05.507Z,99.90
2022-10-17T16:26:32.942Z,99.90
2022-10-17T16:29:03.246Z,99.90
2022-10-17T16:31:34.999Z,99.90
2022-10-17T16:34:03.185Z,99.90
2022-10-17T16:36:30.391Z,99.90
2022-10-17T16:38:57.569Z,99.90
2022-10-17T16:41:26.365Z,99.90
2022-10-17T16:43:54.745Z,99.90
2022-10-17T16:46:22.289Z,99.90
2022-10-17T16:48:49.551Z,99.90
2022-10-17T16:51:18.457Z,99.90
2022-10-17T16:53:46.564Z,99.90
2022-10-17T16:56:15.231Z,99.90
2022-10-17T16:58:43.166Z,99.90
2022-10-17T17:01:11.959Z,99.90
2022-10-17T17:03:40.037Z,99.90
2022-10-17T17:06:07.755Z,99.90
2022-10-17T17:08:37.377Z,99.90
2022-10-17T17:11:08.406Z,99.90
2022-10-17T17:13:37.471Z,99.90
2022-10-17T17:16:12.084Z,99.90
2022-10-17T17:18:39.654Z,99.90
2022-10-17T17:21:07.735Z,99.90
2022-10-17T17:23:36.114Z,99.90
2022-10-17T17:26:07.355Z,99.90
2022-10-17T17:28:35.151Z,99.90
2022-10-17T17:31:02.480Z,99.90
2022-10-17T17:33:30.400Z,99.90
2022-10-17T17:35:58.474Z,99.90
2022-10-17T17:38:25.548Z,99.90
2022-10-17T17:40:52.605Z,99.90
2022-10-17T17:43:19.916Z,99.90
2022-10-17T17:45:46.976Z,99.90
2022-10-17T17:48:14.416Z,99.90
2022-10-17T17:50:41.962Z,99.90
2022-10-17T17:53:09.921Z,99.90
2022-10-17T17:55:36.954Z,99.90
2022-10-17T17:58:04.469Z,99.90
2022-10-17T18:00:31.475Z,99.90
2022-10-17T18:02:58.611Z,99.90
2022-10-17T18:05:25.707Z,99.90
2022-10-17T18:07:52.782Z,99.90
2022-10-17T18:10:19.959Z,99.90
2022-10-17T18:12:47.043Z,99.90
2022-10-17T18:15:14.728Z,99.90
2022-10-17T18:17:42.170Z,99.90
2022-10-17T18:20:09.712Z,99.90
2022-10-17T18:22:36.962Z,99.90
2022-10-17T18:25:04.207Z,99.90
2022-10-17T18:27:31.363Z,99.90
2022-10-17T18:29:58.410Z,99.90
2022-10-17T18:32:25.431Z,99.90
2022-10-17T18:34:52.497Z,99.90
2022-10-17T18:37:20.060Z,99.90
2022-10-17T18:39:51.733Z,99.90
2022-10-17T18:42:18.986Z,99.90
2022-10-17T18:44:47.762Z,99.90
2022-10-17T18:47:14.923Z,99.90
2022-10-17T18:49:43.428Z,99.90
2022-10-17T18:52:10.715Z,99.90
2022-10-17T18:54:38.273Z,99.90
2022-10-17T18:57:05.549Z,99.90
2022-10-17T18:59:32.768Z,99.90
2022-10-17T19:02:00.207Z,99.90
2022-10-17T19:04:27.627Z,99.90
2022-10-17T19:06:54.892Z,99.90
2022-10-17T19:09:22.147Z,99.90
2022-10-17T19:11:49.461Z,99.90
2022-10-17T19:14:16.795Z,99.90
2022-10-17T19:16:45.577Z,99.90
2022-10-17T19:19:12.544Z,99.90
2022-10-17T19:21:39.662Z,99.90
2022-10-17T19:24:07.603Z,99.90
2022-10-17T19:26:35.521Z,99.90
2022-10-17T19:29:02.753Z,99.90
2022-10-17T19:31:31.788Z,99.90
2022-10-17T19:33:59.084Z,99.90
2022-10-17T19:36:30.669Z,99.90
2022-10-17T19:39:01.587Z,99.90
2022-10-17T19:41:28.931Z,99.90
2022-10-17T19:43:56.159Z,99.90
2022-10-17T19:46:24.415Z,99.90
2022-10-17T19:48:51.901Z,99.90
2022-10-17T19:51:20.909Z,99.90
2022-10-17T19:53:48.047Z,99.90
2022-10-17T19:56:18.805Z,99.90
2022-10-17T19:58:46.751Z,99.90
2022-10-17T20:01:24.747Z,99.90
2022-10-17T20:03:52.655Z,99.90
2022-10-17T20:06:19.976Z,99.90
2022-10-17T20:08:47.263Z,99.90
2022-10-17T20:11:15.510Z,99.90
2022-10-17T20:13:42.974Z,99.90
2022-10-17T20:16:13.227Z,99.90
2022-10-17T20:18:41.313Z,99.90
2022-10-17T20:21:11.086Z,99.90
2022-10-17T20:23:38.771Z,99.90
2022-10-17T20:26:25.895Z,99.90
2022-10-17T20:29:00.604Z,99.90
2022-10-17T20:31:27.828Z,99.90
2022-10-17T20:33:59.060Z,99.90
2022-10-17T20:36:26.703Z,99.90
2022-10-17T20:38:57.515Z,99.90
2022-10-17T20:41:25.052Z,99.90
2022-10-17T20:43:53.191Z,99.90
2022-10-17T20:46:36.339Z,99.90
2022-10-17T20:49:05.551Z,99.90
2022-10-17T20:51:32.926Z,99.90
2022-10-17T20:54:00.182Z,99.90
2022-10-17T20:56:28.800Z,99.90
2022-10-17T20:58:57.367Z,99.90
2022-10-17T21:01:25.552Z,99.90
2022-10-17T21:03:53.576Z,99.90
2022-10-17T21:06:20.980Z,99.90
2022-10-17T21:08:48.465Z,99.90
2022-10-17T21:11:19.366Z,99.90
2022-10-17T21:13:47.428Z,99.90
2022-10-17T21:16:18.150Z,99.90
2022-10-17T21:18:45.817Z,99.90
2022-10-17T21:21:17.074Z,99.90
2022-10-17T21:23:45.084Z,99.90
2022-10-17T21:26:12.888Z,99.90
2022-10-17T21:28:40.793Z,99.90
2022-10-17T21:31:11.856Z,99.90
2022-10-17T21:33:39.323Z,99.90
2022-10-17T21:36:06.748Z,99.90
2022-10-17T21:38:37.676Z,99.90
2022-10-17T21:41:05.792Z,99.90
2022-10-17T21:43:33.372Z,99.90
2022-10-17T21:46:14.039Z,99.90
2022-10-17T21:48:41.198Z,99.90
2022-10-17T21:51:10.481Z,99.90
2022-10-17T21:53:37.689Z,99.90
2022-10-17T21:56:06.285Z,99.90
2022-10-17T21:58:33.824Z,99.90
2022-10-17T22:01:11.257Z,99.90
2022-10-17T22:03:42.773Z,99.90
2022-10-17T22:09:01.081Z,99.90
2022-10-17T22:11:33.209Z,99.90
2022-10-17T22:14:01.725Z,99.90
2022-10-17T22:16:29.038Z,99.90
2022-10-17T22:19:01.683Z,99.90
2022-10-17T22:21:32.516Z,99.90
2022-10-17T22:24:01.004Z,99.90
2022-10-17T22:26:29.167Z,99.90
2022-10-17T22:28:56.868Z,99.90
2022-10-17T22:31:24.453Z,99.90
2022-10-17T22:33:51.734Z,99.90
2022-10-17T22:36:19.080Z,99.90
2022-10-17T22:38:46.180Z,99.90
2022-10-17T22:41:13.244Z,99.90
2022-10-17T22:43:40.308Z,99.90
2022-10-17T22:46:07.923Z,99.90
2022-10-17T22:48:35.396Z,99.90
2022-10-17T22:51:02.964Z,99.90
2022-10-17T22:53:30.493Z,99.90
2022-10-17T22:55:59.812Z,99.90
2022-10-17T22:58:27.695Z,99.90
2022-10-17T23:00:55.089Z,99.90
2022-10-17T23:03:23.015Z,99.90
2022-10-17T23:05:50.229Z,99.90
2022-10-17T23:08:20.559Z,99.90
2022-10-17T23:10:47.908Z,99.90
2022-10-17T23:13:15.277Z,99.90
2022-10-17T23:15:43.386Z,99.90
2022-10-17T23:18:10.612Z,99.90
2022-10-17T23:20:38.161Z,99.90
2022-10-17T23:23:05.409Z,99.90
2022-10-17T23:25:35.299Z,99.90
2022-10-17T23:28:02.538Z,99.90
2022-10-17T23:30:31.955Z,99.90
2022-10-17T23:32:59.079Z,99.90
2022-10-17T23:35:26.374Z,99.90
2022-10-17T23:37:53.571Z,99.90
2022-10-17T23:40:20.735Z,99.90
2022-10-17T23:42:47.911Z,99.90
2022-10-17T23:45:15.155Z,99.90
2022-10-17T23:47:42.364Z,99.90
2022-10-17T23:50:09.766Z,99.90
2022-10-17T23:52:36.888Z,99.90
2022-10-17T23:55:04.621Z,99.90
2022-10-17T23:57:32.030Z,99.90
2022-10-17T23:59:59.434Z,99.90
